Time;durP1;ratioP1;P1;durP2;ratioP2;P2;SDS_P1;SDS_P2;PMS_P1;PMS_P2;Temp;Humidity;BMP_temperature;BMP_pressure;BME280_temperature;BME280_humidity;BME280_pressure;Samples;Min_cycle;Max_cycle;Signal;HPM_P1;HPM_P2
2022/01/10 00:00:18;;;;;;;19.43;10.97;;;;;;;0.74;82.16;98802.46;1754670;80;21457;-51
2022/01/10 00:02:47;;;;;;;18.50;10.43;;;;;;;0.72;82.19;98796.32;1755939;80;21107;-51
2022/01/10 00:05:14;;;;;;;20.67;12.23;;;;;;;0.73;82.17;98809.53;1756268;80;21189;-51
2022/01/10 00:07:41;;;;;;;18.27;11.10;;;;;;;0.71;82.12;98806.50;1761377;79;22375;-51
2022/01/10 00:10:09;;;;;;;21.03;12.90;;;;;;;0.70;82.12;98804.30;1757626;80;21501;-51
2022/01/10 00:12:37;;;;;;;16.03;10.97;;;;;;;0.70;82.20;98808.72;1754639;80;21467;-52
2022/01/10 00:15:05;;;;;;;17.07;10.67;;;;;;;0.70;82.19;98817.99;1754812;80;21056;-51
2022/01/10 00:17:33;;;;;;;16.77;10.50;;;;;;;0.71;82.13;98831.66;1763616;80;20910;-51
2022/01/10 00:19:59;;;;;;;14.80;9.57;;;;;;;0.72;82.16;98826.78;1762166;80;20944;-50
2022/01/10 00:22:26;;;;;;;18.13;10.67;;;;;;;0.73;82.15;98829.85;1737270;80;20965;-51
2022/01/10 00:24:53;;;;;;;16.37;10.33;;;;;;;0.73;82.17;98828.53;1761704;80;20986;-51
2022/01/10 00:27:20;;;;;;;16.40;10.40;;;;;;;0.71;82.05;98829.88;1760089;80;20974;-52
2022/01/10 00:29:46;;;;;;;15.87;9.83;;;;;;;0.67;82.00;98829.55;1765269;80;21002;-51
2022/01/10 00:32:12;;;;;;;18.97;10.77;;;;;;;0.62;81.91;98827.45;1759158;80;20981;-50
2022/01/10 00:34:39;;;;;;;12.43;8.10;;;;;;;0.58;81.89;98829.77;1765886;80;20969;-50
2022/01/10 00:37:05;;;;;;;15.30;9.60;;;;;;;0.56;81.96;98842.16;1761215;80;20949;-50
2022/01/10 00:39:33;;;;;;;13.67;8.80;;;;;;;0.54;81.93;98835.14;1759790;80;21012;-51
2022/01/10 00:41:59;;;;;;;12.90;8.77;;;;;;;0.50;82.02;98844.95;1764321;80;21474;-50
2022/01/10 00:44:27;;;;;;;15.43;9.07;;;;;;;0.49;82.08;98844.98;1775397;80;20929;-50
2022/01/10 00:46:53;;;;;;;14.63;9.33;;;;;;;0.48;81.98;98849.41;1768641;80;21290;-51
2022/01/10 00:49:20;;;;;;;14.17;8.53;;;;;;;0.43;81.80;98846.42;1764107;80;20984;-50
2022/01/10 00:51:46;;;;;;;9.57;7.23;;;;;;;0.36;81.80;98847.02;1765795;80;21558;-50
2022/01/10 00:54:12;;;;;;;12.03;8.13;;;;;;;0.31;81.85;98848.45;1768032;78;21431;-51
2022/01/10 00:56:40;;;;;;;9.37;6.77;;;;;;;0.25;81.87;98853.01;1769846;80;20973;-50
2022/01/10 00:59:06;;;;;;;12.10;7.70;;;;;;;0.22;81.99;98855.71;1768551;80;20882;-50
2022/01/10 01:01:32;;;;;;;12.00;7.27;;;;;;;0.21;82.10;98860.58;1770374;80;20956;-49
2022/01/10 01:03:59;;;;;;;14.47;8.33;;;;;;;0.20;82.00;98857.51;1769853;80;20890;-51
2022/01/10 01:06:25;;;;;;;11.37;7.77;;;;;;;0.18;82.02;98857.98;1768848;80;22372;-50
2022/01/10 01:08:57;;;;;;;13.77;9.13;;;;;;;0.18;82.15;98856.21;1762638;80;21079;-50
2022/01/10 01:14:21;;;;;;;12.57;7.73;;;;;;;0.20;82.12;98850.89;1762171;80;21064;-50
2022/01/10 01:24:27;;;;;;;9.60;5.73;;;;;;;0.11;82.09;98859.02;1771184;80;21083;-51
2022/01/10 01:26:55;;;;;;;8.47;5.27;;;;;;;0.09;82.06;98859.05;1764111;80;21536;-51
2022/01/10 01:29:25;;;;;;;8.67;5.30;;;;;;;0.08;82.09;98865.72;1770432;80;21118;-51
2022/01/10 01:31:52;;;;;;;7.93;5.60;;;;;;;0.08;82.09;98861.75;1766511;80;22819;-51
2022/01/10 01:34:19;;;;;;;7.60;4.60;;;;;;;0.07;82.06;98868.81;1768481;80;21259;-51
2022/01/10 01:36:49;;;;;;;8.33;6.07;;;;;;;0.05;82.04;98872.39;1761866;80;21649;-51
2022/01/10 01:39:20;;;;;;;6.93;4.77;;;;;;;0.04;82.07;98868.87;1767182;80;20961;-51
2022/01/10 01:41:47;;;;;;;7.23;4.37;;;;;;;0.04;81.98;98875.93;1759049;78;20950;-50
2022/01/10 01:44:13;;;;;;;6.97;4.37;;;;;;;-0.02;81.91;98875.16;1758047;80;21098;-51
2022/01/10 01:46:41;;;;;;;5.93;3.90;;;;;;;-0.06;81.95;98870.81;1753138;80;21127;-50
2022/01/10 01:49:08;;;;;;;3.97;2.50;;;;;;;-0.06;81.95;98871.27;1756042;80;21539;-50
2022/01/10 01:51:35;;;;;;;3.83;3.00;;;;;;;-0.08;81.87;98871.73;1753935;80;21539;-50
2022/01/10 01:54:01;;;;;;;4.93;2.40;;;;;;;-0.08;81.93;98877.03;1754355;80;21259;-51
2022/01/10 01:56:28;;;;;;;3.53;2.27;;;;;;;-0.08;81.98;98881.00;1736639;80;22408;-51
2022/01/10 01:58:55;;;;;;;3.20;2.60;;;;;;;-0.08;81.87;98885.84;1756871;80;21544;-51
2022/01/10 02:01:22;;;;;;;3.37;2.37;;;;;;;-0.08;81.78;98887.61;1763564;80;21024;-51
2022/01/10 02:03:49;;;;;;;4.23;3.03;;;;;;;-0.10;81.77;98890.31;1758214;80;21092;-51
2022/01/10 02:06:17;;;;;;;3.80;2.10;;;;;;;-0.09;81.82;98896.03;1755075;80;21379;-51
2022/01/10 02:08:43;;;;;;;2.83;1.97;;;;;;;-0.07;81.76;98887.59;1758454;80;21701;-50
2022/01/10 02:11:13;;;;;;;3.57;1.90;;;;;;;-0.08;81.74;98890.26;1758955;80;21387;-51
2022/01/10 02:13:40;;;;;;;2.97;2.00;;;;;;;-0.10;81.73;98895.61;1759396;80;21455;-51
2022/01/10 02:16:10;;;;;;;2.83;1.90;;;;;;;-0.09;81.76;98892.06;1754593;80;21048;-51
2022/01/10 02:18:38;;;;;;;4.37;1.90;;;;;;;-0.10;81.72;98892.95;1760576;80;21112;-50
2022/01/10 02:21:05;;;;;;;3.30;2.40;;;;;;;-0.11;81.67;98890.34;1751317;80;23150;-49
2022/01/10 02:23:35;;;;;;;4.43;1.87;;;;;;;-0.12;81.67;98897.41;1760053;79;21061;-50
2022/01/10 02:26:06;;;;;;;2.70;2.43;;;;;;;-0.11;81.70;98893.86;1754713;80;21104;-49
2022/01/10 02:28:35;;;;;;;2.50;2.00;;;;;;;-0.12;81.59;98897.41;1760626;80;21080;-51
2022/01/10 02:31:03;;;;;;;3.67;2.37;;;;;;;-0.14;81.56;98895.23;1753857;80;21569;-50
2022/01/10 02:33:30;;;;;;;2.60;1.97;;;;;;;-0.16;81.63;98897.02;1754530;80;21092;-50
2022/01/10 02:36:16;;;;;;;2.03;1.83;;;;;;;-0.18;81.58;98901.49;1757891;80;22093;-50
2022/01/10 02:38:32;;;;;;;;;;;;;;;-0.19;81.57;98901.52;1756018;80;22214;-50
2022/01/10 02:40:59;;;;;;;3.53;1.93;;;;;;;-0.21;81.50;98902.86;1752719;80;21816;-50
2022/01/10 02:43:25;;;;;;;3.47;2.17;;;;;;;-0.23;81.58;98910.39;1757778;80;21064;-50
2022/01/10 02:45:51;;;;;;;4.30;2.33;;;;;;;-0.25;81.60;98908.22;1757992;80;21827;-50
2022/01/10 02:48:18;;;;;;;4.47;2.17;;;;;;;-0.28;81.60;98918.42;1760208;80;20919;-50
2022/01/10 02:50:44;;;;;;;3.30;2.53;;;;;;;-0.28;81.67;98915.78;1755839;80;21617;-51
2022/01/10 02:53:10;;;;;;;4.93;2.27;;;;;;;-0.27;81.66;98919.30;1738057;80;22403;-51
2022/01/10 02:55:38;;;;;;;2.33;1.83;;;;;;;-0.27;81.64;98925.46;1743995;80;21519;-51
2022/01/10 02:58:04;;;;;;;4.40;2.67;;;;;;;-0.26;81.62;98931.63;1753685;80;21108;-51
2022/01/10 03:00:31;;;;;;;2.67;2.30;;;;;;;-0.25;81.67;98934.22;1757057;80;21044;-51
2022/01/10 03:02:59;;;;;;;2.80;2.20;;;;;;;-0.21;81.64;98940.34;1757736;80;21112;-50
2022/01/10 03:05:25;;;;;;;4.90;2.83;;;;;;;-0.21;81.62;98939.02;1759217;80;21068;-49
2022/01/10 03:07:55;;;;;;;3.03;2.47;;;;;;;-0.20;81.64;98940.31;1757563;80;21088;-50
2022/01/10 03:10:22;;;;;;;3.17;2.87;;;;;;;-0.16;81.60;98947.72;1762717;80;21349;-50
2022/01/10 03:12:48;;;;;;;3.50;2.47;;;;;;;-0.17;81.57;98946.84;1760842;80;21436;-50
2022/01/10 03:15:17;;;;;;;2.37;1.60;;;;;;;-0.18;81.52;98953.52;1757218;80;21250;-50
2022/01/10 03:17:44;;;;;;;2.80;1.63;;;;;;;-0.22;81.42;98952.69;1759145;80;21076;-50
2022/01/10 03:20:11;;;;;;;3.10;2.23;;;;;;;-0.25;81.35;98948.76;1754826;80;21088;-50
2022/01/10 03:22:37;;;;;;;3.43;1.70;;;;;;;-0.27;81.35;98952.36;1764317;80;21251;-49
2022/01/10 03:25:05;;;;;;;3.00;1.77;;;;;;;-0.27;81.35;98956.33;1764140;80;20895;-50
2022/01/10 03:27:32;;;;;;;2.50;1.87;;;;;;;-0.27;81.32;98958.52;1758027;80;21567;-51
2022/01/10 03:29:58;;;;;;;2.33;1.63;;;;;;;-0.29;81.25;98965.59;1763716;80;20961;-50
2022/01/10 03:32:25;;;;;;;2.10;1.50;;;;;;;-0.30;81.27;98960.33;1761044;80;21058;-50
2022/01/10 03:34:54;;;;;;;2.27;1.40;;;;;;;-0.31;81.29;98962.10;1756461;80;22197;-49
2022/01/10 03:37:20;;;;;;;2.20;1.60;;;;;;;-0.29;81.24;98973.53;1758968;80;21061;-50
2022/01/10 03:39:46;;;;;;;3.27;2.10;;;;;;;-0.31;81.22;98976.64;1757458;79;21139;-50
2022/01/10 03:42:13;;;;;;;2.70;1.90;;;;;;;-0.30;81.23;98983.69;1755378;80;21417;-51
2022/01/10 03:44:39;;;;;;;2.00;1.73;;;;;;;-0.31;81.20;98991.19;1758292;80;20917;-50
2022/01/10 03:47:07;;;;;;;3.53;2.23;;;;;;;-0.32;81.15;98993.41;1762498;80;22086;-51
2022/01/10 03:49:34;;;;;;;2.77;1.60;;;;;;;-0.35;81.14;98992.16;1761932;80;20945;-50
2022/01/10 03:52:00;;;;;;;2.23;1.60;;;;;;;-0.36;81.22;98993.05;1759564;80;20926;-49
2022/01/10 03:54:26;;;;;;;3.33;2.37;;;;;;;-0.38;81.17;98997.48;1743782;80;20918;-50
2022/01/10 03:56:53;;;;;;;5.17;2.67;;;;;;;-0.38;81.11;98997.48;1740838;80;20961;-49
2022/01/10 03:59:20;;;;;;;3.47;2.37;;;;;;;-0.42;81.11;99000.61;1759649;80;21103;-50
2022/01/10 04:01:47;;;;;;;3.30;2.60;;;;;;;-0.44;81.16;98997.59;1760253;80;21467;-49
2022/01/10 04:04:14;;;;;;;4.40;2.90;;;;;;;-0.45;81.16;99007.30;1759549;80;21812;-50
2022/01/10 04:06:41;;;;;;;2.47;1.93;;;;;;;-0.44;81.14;99012.14;1759189;80;20961;-50
2022/01/10 04:09:07;;;;;;;3.63;2.50;;;;;;;-0.43;81.11;99009.92;1761687;80;20925;-50
2022/01/10 04:11:34;;;;;;;3.77;2.77;;;;;;;-0.43;81.14;99015.20;1761064;80;21083;-50
2022/01/10 04:14:01;;;;;;;3.47;2.93;;;;;;;-0.44;81.05;99011.69;1755508;80;21084;-50
2022/01/10 04:16:27;;;;;;;5.07;2.63;;;;;;;-0.43;81.05;99008.16;1760321;80;21597;-50
2022/01/10 04:18:53;;;;;;;4.50;2.77;;;;;;;-0.42;81.06;99014.28;1761106;80;21541;-50
2022/01/10 04:21:21;;;;;;;6.30;2.97;;;;;;;-0.42;81.05;99019.13;1729806;80;21049;-49
2022/01/10 04:23:47;;;;;;;4.77;3.50;;;;;;;-0.41;81.04;99020.88;1757193;80;21680;-49
2022/01/10 04:26:14;;;;;;;7.97;4.57;;;;;;;-0.40;81.01;99026.59;1759173;80;21149;-50
2022/01/10 04:28:42;;;;;;;5.33;3.40;;;;;;;-0.40;80.99;99020.42;1756885;80;21041;-50
2022/01/10 04:31:10;;;;;;;7.90;4.37;;;;;;;-0.39;81.04;99028.78;1757814;80;21052;-50
2022/01/10 04:33:36;;;;;;;5.60;4.70;;;;;;;-0.40;81.00;99031.00;1756257;80;21565;-51
2022/01/10 04:36:03;;;;;;;6.13;3.83;;;;;;;-0.42;80.89;99032.34;1762632;80;21664;-50
2022/01/10 04:38:30;;;;;;;6.67;4.20;;;;;;;-0.43;80.94;99031.95;1755925;80;21397;-50
2022/01/10 04:40:56;;;;;;;6.47;4.77;;;;;;;-0.43;81.00;99039.00;1756975;80;21222;-50
2022/01/10 04:43:23;;;;;;;5.43;4.17;;;;;;;-0.42;81.00;99040.72;1765790;80;21067;-50
2022/01/10 04:45:49;;;;;;;6.73;4.33;;;;;;;-0.41;81.02;99039.38;1765012;80;21056;-50
2022/01/10 04:48:17;;;;;;;10.23;5.57;;;;;;;-0.39;80.98;99042.00;1754189;80;22294;-50
2022/01/10 04:51:32;;;;;;;7.60;5.10;;;;;;;-0.40;80.89;99043.78;1765239;78;21127;-50
2022/01/10 04:56:13;;;;;;;9.17;4.43;;;;;;;-0.39;80.86;99042.88;1841904;75;26666;-49
2022/01/10 04:58:40;;;;;;;8.43;5.50;;;;;;;-0.43;80.88;99057.06;1786737;78;21027;-50
2022/01/10 05:01:06;;;;;;;8.90;5.10;;;;;;;-0.43;80.82;99062.35;1786283;78;21787;-50
2022/01/10 05:03:33;;;;;;;7.90;4.87;;;;;;;-0.41;80.83;99069.79;1784734;78;21411;-50
2022/01/10 05:06:00;;;;;;;11.67;6.27;;;;;;;-0.43;80.82;99075.58;1786489;78;21249;-50
2022/01/10 05:08:26;;;;;;;8.93;5.30;;;;;;;-0.41;80.78;99083.45;1785133;78;21612;-51
2022/01/10 05:10:54;;;;;;;8.37;6.03;;;;;;;-0.41;80.72;99086.09;1753566;80;20945;-50
2022/01/10 05:13:20;;;;;;;7.77;5.27;;;;;;;-0.42;80.72;99089.19;1738477;80;21164;-50
2022/01/10 05:15:49;;;;;;;6.47;4.23;;;;;;;-0.40;80.74;99086.53;1734785;80;21108;-50
2022/01/10 05:18:16;;;;;;;8.47;6.00;;;;;;;-0.40;80.68;99085.20;1736853;80;21124;-50
2022/01/10 05:20:42;;;;;;;7.83;5.07;;;;;;;-0.39;80.66;99090.92;1736603;80;21069;-49
2022/01/10 05:23:09;;;;;;;7.93;4.73;;;;;;;-0.40;80.60;99096.66;1735169;80;21115;-50
2022/01/10 05:25:39;;;;;;;7.57;4.87;;;;;;;-0.40;80.62;99097.11;1737472;81;21184;-50
2022/01/10 05:28:05;;;;;;;5.63;4.50;;;;;;;-0.40;80.62;99101.07;1735580;81;21483;-50
2022/01/10 05:30:32;;;;;;;8.60;4.53;;;;;;;-0.40;80.55;99109.00;1739551;81;21063;-49
2022/01/10 05:32:58;;;;;;;6.17;4.73;;;;;;;-0.43;80.52;99105.98;1736261;80;21088;-50
2022/01/10 05:35:26;;;;;;;8.13;5.43;;;;;;;-0.45;80.49;99110.85;1736030;81;21077;-50
2022/01/10 05:37:53;;;;;;;8.27;4.47;;;;;;;-0.46;80.48;99111.74;1736135;81;21146;-49
2022/01/10 05:40:19;;;;;;;7.23;4.33;;;;;;;-0.47;80.50;99121.89;1739214;80;21065;-50
2022/01/10 05:42:46;;;;;;;8.63;4.57;;;;;;;-0.50;80.50;99124.13;1736886;81;21064;-50
2022/01/10 05:45:12;;;;;;;10.87;5.90;;;;;;;-0.51;80.47;99113.59;1737670;80;21097;-50
2022/01/10 05:47:42;;;;;;;11.57;5.10;;;;;;;-0.52;80.53;99126.38;1738368;81;21053;-50
2022/01/10 05:50:09;;;;;;;11.10;4.87;;;;;;;-0.54;80.53;99118.47;1734578;80;23061;-50
2022/01/10 05:52:37;;;;;;;8.13;4.83;;;;;;;-0.51;80.52;99128.13;1738454;81;21539;-49
2022/01/10 05:55:05;;;;;;;6.60;4.33;;;;;;;-0.51;80.46;99136.06;1736938;81;21037;-50
2022/01/10 05:57:33;;;;;;;8.97;4.97;;;;;;;-0.52;80.49;99139.16;1739584;81;21522;-50
2022/01/10 06:00:01;;;;;;;9.83;4.93;;;;;;;-0.51;80.47;99138.23;1749637;80;21024;-49
2022/01/10 06:02:29;;;;;;;11.43;4.97;;;;;;;-0.52;80.36;99143.12;1722934;81;21979;-49
2022/01/10 06:04:59;;;;;;;8.43;4.77;;;;;;;-0.53;80.38;99144.01;1704516;82;21081;-50
2022/01/10 06:07:26;;;;;;;8.83;5.57;;;;;;;-0.54;80.37;99150.63;1735182;81;21081;-49
2022/01/10 06:09:53;;;;;;;10.00;5.97;;;;;;;-0.55;80.41;99153.72;1736532;80;22175;-49
2022/01/10 06:12:19;;;;;;;11.17;6.37;;;;;;;-0.56;80.39;99162.55;1739522;81;21574;-49
2022/01/10 06:14:46;;;;;;;9.90;5.67;;;;;;;-0.55;80.47;99163.42;1737943;80;21885;-49
2022/01/10 06:17:12;;;;;;;10.33;6.23;;;;;;;-0.54;80.45;99171.78;1733831;80;21535;-49
2022/01/10 06:19:40;;;;;;;12.50;6.47;;;;;;;-0.53;80.39;99169.57;1735510;81;21129;-49
2022/01/10 06:22:06;;;;;;;11.97;6.73;;;;;;;-0.54;80.31;99169.14;1735003;81;21360;-49
2022/01/10 06:24:33;;;;;;;12.53;6.80;;;;;;;-0.54;80.35;99174.42;1738700;80;21258;-49
2022/01/10 06:26:59;;;;;;;9.10;6.20;;;;;;;-0.54;80.31;99173.98;1735759;80;21576;-50
2022/01/10 06:29:26;;;;;;;12.43;7.33;;;;;;;-0.53;80.29;99181.02;1736672;81;21617;-49
2022/01/10 06:31:52;;;;;;;8.13;5.37;;;;;;;-0.53;80.20;99186.75;1737193;81;22202;-49
2022/01/10 06:34:19;;;;;;;11.70;6.60;;;;;;;-0.55;80.18;99192.50;1709840;82;21129;-49
2022/01/10 06:36:46;;;;;;;11.63;6.03;;;;;;;-0.55;80.18;99195.14;1707235;82;21097;-49
2022/01/10 06:39:13;;;;;;;10.77;6.47;;;;;;;-0.57;80.06;99198.25;1740680;80;21987;-49
2022/01/10 06:41:41;;;;;;;11.67;6.77;;;;;;;-0.60;80.10;99197.86;1739726;81;20954;-50
2022/01/10 06:44:08;;;;;;;10.63;6.97;;;;;;;-0.59;80.13;99195.61;1739863;79;20978;-49
2022/01/10 06:46:34;;;;;;;12.43;8.17;;;;;;;-0.57;80.23;99199.13;1738545;81;21361;-49
2022/01/10 06:49:01;;;;;;;12.73;7.03;;;;;;;-0.54;80.24;99203.51;1736496;80;21864;-50
2022/01/10 06:51:28;;;;;;;13.87;8.43;;;;;;;-0.53;80.18;99207.45;1716679;81;21448;-49
2022/01/10 06:53:54;;;;;;;14.33;7.60;;;;;;;-0.49;80.15;99212.23;1741045;81;21527;-50
2022/01/10 06:56:20;;;;;;;14.73;7.63;;;;;;;-0.50;80.01;99217.97;1740505;80;20887;-49
2022/01/10 06:58:46;;;;;;;13.57;7.60;;;;;;;-0.52;80.00;99214.50;1740067;81;21040;-49
2022/01/10 07:01:17;;;;;;;11.40;6.87;;;;;;;-0.50;80.03;99221.06;1741024;81;20997;-49
2022/01/10 07:03:43;;;;;;;14.13;8.50;;;;;;;-0.51;79.97;99222.83;1739019;80;21244;-49
2022/01/10 07:06:11;;;;;;;15.60;8.20;;;;;;;-0.50;79.93;99228.55;1734092;80;21445;-49
2022/01/10 07:08:38;;;;;;;14.93;7.67;;;;;;;-0.50;79.94;99225.03;1738392;81;22609;-49
2022/01/10 07:11:05;;;;;;;9.40;6.53;;;;;;;-0.51;79.78;99229.92;1708754;80;21685;-50
2022/01/10 07:13:32;;;;;;;15.07;7.77;;;;;;;-0.54;79.77;99232.14;1738101;81;21516;-49
2022/01/10 07:16:00;;;;;;;11.60;6.93;;;;;;;-0.55;79.90;99221.13;1734396;81;22707;-48
2022/01/10 07:18:26;;;;;;;13.77;8.17;;;;;;;-0.51;79.92;99228.12;1735042;81;21088;-49
2022/01/10 07:20:55;;;;;;;11.07;7.13;;;;;;;-0.49;79.81;99235.59;1733889;80;21122;-50
2022/01/10 07:23:23;;;;;;;15.13;8.93;;;;;;;-0.49;79.81;99238.68;1736770;80;21443;-49
2022/01/10 07:25:50;;;;;;;16.17;8.53;;;;;;;-0.48;79.83;99234.70;1737125;81;21132;-49
2022/01/10 07:28:16;;;;;;;14.90;7.63;;;;;;;-0.46;79.81;99235.56;1755628;80;21253;-49
2022/01/10 07:30:43;;;;;;;14.60;8.70;;;;;;;-0.45;79.79;99245.25;1750660;80;21040;-49
2022/01/10 07:33:09;;;;;;;19.87;11.67;;;;;;;-0.43;79.68;99241.27;1749133;80;21107;-50
2022/01/10 07:35:36;;;;;;;18.17;10.20;;;;;;;-0.46;79.66;99240.85;1717949;81;21099;-50
2022/01/10 07:38:03;;;;;;;20.70;10.67;;;;;;;-0.44;79.70;99240.84;1750704;80;21020;-50
2022/01/10 07:40:30;;;;;;;17.57;10.53;;;;;;;-0.43;79.63;99240.83;1733172;81;21717;-50
2022/01/10 07:42:56;;;;;;;15.70;10.00;;;;;;;-0.43;79.56;99245.23;1733004;81;21089;-49
2022/01/10 07:45:34;;;;;;;15.83;9.40;;;;;;;-0.43;79.53;99246.56;1731874;80;21310;-53
2022/01/10 07:48:01;;;;;;;15.07;8.57;;;;;;;-0.40;79.63;99252.67;1751823;80;22379;-50
2022/01/10 07:50:27;;;;;;;16.87;9.33;;;;;;;-0.35;79.59;99257.04;1747828;80;23015;-50
2022/01/10 07:52:53;;;;;;;15.63;9.13;;;;;;;-0.33;79.48;99258.75;1752363;80;21131;-50
2022/01/10 07:55:20;;;;;;;14.57;8.67;;;;;;;-0.31;79.45;99262.25;1752567;80;21658;-50
2022/01/10 07:57:46;;;;;;;16.03;9.80;;;;;;;-0.29;79.42;99262.24;1758672;80;21076;-50
2022/01/10 08:00:14;;;;;;;16.90;8.97;;;;;;;-0.27;79.29;99263.98;1756807;80;21605;-49
2022/01/10 08:02:41;;;;;;;13.20;8.50;;;;;;;-0.29;79.24;99268.41;1756162;80;21269;-50
2022/01/10 08:05:09;;;;;;;16.07;10.03;;;;;;;-0.32;79.15;99279.02;1732851;81;22902;-50
2022/01/10 08:07:35;;;;;;;23.30;12.00;;;;;;;-0.34;79.13;99275.98;1734029;81;21673;-50
2022/01/10 08:10:05;;;;;;;21.07;11.60;;;;;;;-0.34;79.17;99283.92;1729392;81;21372;-50
2022/01/10 08:12:32;;;;;;;18.13;11.47;;;;;;;-0.30;79.26;99279.00;1754853;80;21154;-49
2022/01/10 08:14:58;;;;;;;20.30;10.67;;;;;;;-0.28;79.15;99279.42;1748981;80;21066;-50
2022/01/10 08:17:25;;;;;;;13.93;9.87;;;;;;;-0.25;79.15;99286.42;1752869;80;21083;-50
2022/01/10 08:19:51;;;;;;;13.30;8.40;;;;;;;-0.23;79.10;99291.25;1753383;80;22288;-50
2022/01/10 08:22:17;;;;;;;16.63;10.87;;;;;;;-0.24;78.95;99290.82;1756513;80;21600;-50
2022/01/10 08:24:43;;;;;;;19.97;10.07;;;;;;;-0.25;78.90;99297.88;1749551;80;22432;-50
2022/01/10 08:27:10;;;;;;;15.47;9.13;;;;;;;-0.26;78.85;99292.63;1749455;80;21081;-50
2022/01/10 08:29:36;;;;;;;15.73;9.83;;;;;;;-0.27;78.74;99303.66;1720643;81;21104;-51
2022/01/10 08:32:03;;;;;;;13.37;9.90;;;;;;;-0.28;78.69;99299.26;1751612;80;21035;-50
2022/01/10 08:34:30;;;;;;;15.37;9.97;;;;;;;-0.30;78.70;99305.45;1754809;80;21054;-50
2022/01/10 08:36:57;;;;;;;14.53;8.43;;;;;;;-0.31;78.77;99300.60;1757391;80;21094;-50
2022/01/10 08:39:23;;;;;;;14.63;8.23;;;;;;;-0.30;78.63;99308.97;1754814;80;21636;-49
2022/01/10 08:41:50;;;;;;;16.23;9.77;;;;;;;-0.32;78.62;99312.52;1754440;80;21522;-50
2022/01/10 08:44:17;;;;;;;15.43;8.37;;;;;;;-0.30;78.61;99314.70;1753473;80;21479;-50
2022/01/10 08:46:47;;;;;;;12.87;7.73;;;;;;;-0.32;78.53;99310.75;1757906;80;21419;-51
2022/01/10 08:49:13;;;;;;;14.13;8.67;;;;;;;-0.30;78.29;99313.38;1758655;80;21398;-50
2022/01/10 08:51:41;;;;;;;11.30;7.80;;;;;;;-0.33;78.32;99324.86;1754026;80;22752;-50
2022/01/10 08:54:09;;;;;;;11.27;6.67;;;;;;;-0.33;78.31;99328.83;1754979;80;22036;-50
2022/01/10 08:56:36;;;;;;;10.57;7.00;;;;;;;-0.33;78.28;99322.22;1755838;80;20910;-50
2022/01/10 08:59:04;;;;;;;11.73;6.40;;;;;;;-0.32;78.18;99321.33;1751724;80;21051;-49
2022/01/10 09:01:31;;;;;;;12.30;6.67;;;;;;;-0.32;78.15;99326.62;1758827;80;21090;-50
2022/01/10 09:03:59;;;;;;;11.33;6.53;;;;;;;-0.32;78.14;99326.62;1755910;80;21909;-50
2022/01/10 09:06:25;;;;;;;10.83;6.57;;;;;;;-0.29;78.11;99323.95;1754492;80;21044;-50
2022/01/10 09:08:52;;;;;;;9.13;5.87;;;;;;;-0.27;77.94;99331.43;1757242;80;21037;-50
2022/01/10 09:11:20;;;;;;;12.67;7.53;;;;;;;-0.27;77.80;99322.17;1758719;80;21479;-50
2022/01/10 09:13:47;;;;;;;11.33;6.83;;;;;;;-0.28;77.55;99333.64;1763563;80;21466;-52
2022/01/10 09:16:14;;;;;;;10.33;5.80;;;;;;;-0.31;77.58;99330.14;1762823;80;21451;-50
2022/01/10 09:18:41;;;;;;;7.83;4.93;;;;;;;-0.31;77.57;99331.02;1761664;80;21740;-51
2022/01/10 09:21:08;;;;;;;7.67;4.43;;;;;;;-0.30;77.30;99334.55;1760764;80;20917;-50
2022/01/10 09:23:34;;;;;;;9.13;5.50;;;;;;;-0.32;76.97;99338.52;1759153;80;20972;-50
2022/01/10 09:26:00;;;;;;;8.87;6.23;;;;;;;-0.36;76.90;99331.53;1759042;80;21020;-51
2022/01/10 09:28:26;;;;;;;10.80;5.50;;;;;;;-0.37;76.94;99335.51;1761753;80;20920;-50
2022/01/10 09:30:53;;;;;;;9.73;5.27;;;;;;;-0.40;77.01;99339.05;1761387;80;21094;-51
2022/01/10 09:33:20;;;;;;;10.27;7.20;;;;;;;-0.41;76.98;99335.97;1759896;80;20957;-50
2022/01/10 09:35:46;;;;;;;11.13;6.90;;;;;;;-0.40;77.03;99342.57;1761940;80;20952;-50
2022/01/10 09:38:13;;;;;;;10.20;6.40;;;;;;;-0.39;76.98;99345.66;1754382;80;21072;-50
2022/01/10 09:40:40;;;;;;;10.93;6.13;;;;;;;-0.40;77.07;99344.34;1751865;80;21056;-50
2022/01/10 09:43:07;;;;;;;13.00;7.10;;;;;;;-0.39;76.92;99346.97;1758601;80;21060;-50
2022/01/10 09:45:34;;;;;;;10.73;6.33;;;;;;;-0.44;76.67;99340.00;1761852;80;21036;-50
2022/01/10 09:48:01;;;;;;;9.77;6.17;;;;;;;-0.52;76.71;99348.02;1759359;79;21103;-51
2022/01/10 09:50:27;;;;;;;8.30;5.87;;;;;;;-0.57;76.76;99350.25;1758257;80;21037;-52
2022/01/10 09:52:54;;;;;;;10.70;5.57;;;;;;;-0.64;76.88;99358.69;1758792;80;21048;-51
2022/01/10 09:55:20;;;;;;;10.00;6.20;;;;;;;-0.68;77.04;99358.27;1758167;80;21227;-51
2022/01/10 09:57:46;;;;;;;13.03;7.33;;;;;;;-0.69;77.08;99361.84;1755508;80;21052;-51
2022/01/10 10:00:15;;;;;;;13.10;6.50;;;;;;;-0.68;77.12;99362.23;1756401;80;21095;-51
2022/01/10 10:02:48;;;;;;;10.40;7.23;;;;;;;-0.65;77.17;99366.63;1751113;80;21357;-51
2022/01/10 10:05:15;;;;;;;11.37;6.47;;;;;;;-0.64;77.06;99367.94;1760918;80;21482;-51
2022/01/10 10:07:41;;;;;;;12.13;7.23;;;;;;;-0.67;77.10;99373.69;1756637;80;21096;-51
2022/01/10 10:10:11;;;;;;;11.57;7.20;;;;;;;-0.70;77.07;99373.30;1755332;80;21126;-51
2022/01/10 10:12:39;;;;;;;14.33;7.53;;;;;;;-0.77;77.17;99384.82;1758853;80;20917;-50
2022/01/10 10:15:07;;;;;;;15.67;7.53;;;;;;;-0.87;77.14;99384.45;1756873;80;20940;-51
2022/01/10 10:17:36;;;;;;;12.97;6.67;;;;;;;-0.98;77.35;99387.17;1752882;80;21035;-51
2022/01/10 10:20:10;;;;;;;15.40;7.43;;;;;;;-1.03;77.51;99381.06;1754004;80;21106;-51
2022/01/10 10:22:39;;;;;;;12.45;6.85;;;;;;;-1.05;77.65;99385.48;1760796;80;21051;-51
2022/01/10 10:25:07;;;;;;;9.60;5.00;;;;;;;-1.07;77.60;99392.97;1754081;80;21067;-51
2022/01/10 10:27:41;;;;;;;8.87;4.90;;;;;;;-1.11;77.37;99388.17;1755433;80;21064;-51
2022/01/10 10:30:26;;;;;;;9.83;5.33;;;;;;;-1.15;77.35;99391.70;1753381;80;21039;-50
2022/01/10 10:32:52;;;;;;;11.20;5.35;;;;;;;-1.18;77.45;99385.12;1755540;80;21172;-51
2022/01/10 10:35:19;;;;;;;15.90;6.23;;;;;;;-1.16;77.65;99395.23;1753530;80;21087;-51
2022/01/10 10:37:48;;;;;;;11.67;6.07;;;;;;;-1.13;77.47;99401.83;1757141;80;21106;-50
2022/01/10 10:40:15;;;;;;;9.33;5.20;;;;;;;-1.13;77.51;99403.59;1760419;80;20932;-51
2022/01/10 10:42:42;;;;;;;10.33;5.60;;;;;;;-1.10;77.54;99408.39;1756468;80;21118;-51
2022/01/10 10:45:11;;;;;;;9.90;5.30;;;;;;;-1.08;77.39;99407.94;1753268;80;22357;-50
2022/01/10 10:47:40;;;;;;;7.17;4.47;;;;;;;-1.06;77.27;99407.94;1757498;80;20941;-50
2022/01/10 10:50:08;;;;;;;6.37;3.87;;;;;;;-1.09;76.94;99418.52;1739636;80;21302;-51
2022/01/10 10:52:37;;;;;;;12.20;5.30;;;;;;;-1.19;77.11;99419.02;1738879;81;20938;-51
2022/01/10 10:55:11;;;;;;;11.90;5.70;;;;;;;-1.26;77.09;99413.34;1725477;81;21288;-51
2022/01/10 10:57:37;;;;;;;10.23;5.12;;;;;;;-1.34;77.12;99420.00;1738978;80;21063;-50
2022/01/10 11:00:12;;;;;;;10.53;5.23;;;;;;;-1.38;77.11;99420.03;1740939;80;21467;-51
2022/01/10 11:02:39;;;;;;;9.03;5.30;;;;;;;-1.39;77.18;99419.59;1738911;80;21460;-50
2022/01/10 11:05:07;;;;;;;11.23;5.83;;;;;;;-1.42;77.09;99416.96;1736099;81;21049;-50
2022/01/10 11:07:35;;;;;;;8.43;4.93;;;;;;;-1.42;77.20;99419.60;1742849;80;21034;-50
2022/01/10 11:10:06;;;;;;;9.57;5.33;;;;;;;-1.41;77.26;99427.96;1739284;80;21199;-49
2022/01/10 11:12:35;;;;;;;10.20;4.53;;;;;;;-1.40;77.19;99437.64;1740449;80;21101;-51
2022/01/10 11:15:03;;;;;;;7.93;4.80;;;;;;;-1.41;77.15;99438.52;1742635;80;20946;-50
2022/01/10 11:17:30;;;;;;;8.50;4.77;;;;;;;-1.39;77.18;99436.31;1737395;81;21454;-50
2022/01/10 11:20:21;;;;;;;11.20;6.10;;;;;;;-1.38;77.12;99443.80;1734438;81;21015;-50
2022/01/10 11:22:55;;;;;;;9.43;5.33;;;;;;;-1.38;77.12;99445.12;1712255;81;21123;-50
2022/01/10 11:25:28;;;;;;;8.08;5.10;;;;;;;-1.38;77.14;99447.75;1752487;80;21119;-50
2022/01/10 11:28:08;;;;;;;9.23;5.37;;;;;;;-1.37;77.30;99450.84;1716151;81;21439;-50
2022/01/10 11:30:44;;;;;;;12.03;5.67;;;;;;;-1.39;77.07;99459.20;1756880;80;21451;-51
2022/01/10 11:33:18;;;;;;;9.17;4.47;;;;;;;-1.42;77.19;99465.80;1755854;80;20972;-50
2022/01/10 11:35:52;;;;;;;8.70;4.30;;;;;;;-1.44;77.23;99464.92;1752174;80;21068;-50
2022/01/10 11:38:39;;;;;;;10.75;5.22;;;;;;;-1.46;77.09;99460.13;1755446;80;20964;-50
2022/01/10 11:41:18;;;;;;;10.63;5.30;;;;;;;-1.51;77.03;99462.77;1751570;80;21025;-51
2022/01/10 11:44:04;;;;;;;9.33;4.90;;;;;;;-1.58;77.01;99461.92;1750446;80;21672;-50